sensor_id;sensor_type;location;lat;lon;timestamp;P1;durP1;ratioP1;P2;durP2;ratioP2
25549;SDS011;13444;50.562;7.262;2023-12-29T00:00:34;1.70;;;1.00;;
25549;SDS011;13444;50.562;7.262;2023-12-29T00:03:00;2.03;;;1.10;;
25549;SDS011;13444;50.562;7.262;2023-12-29T00:05:25;1.83;;;0.90;;
25549;SDS011;13444;50.562;7.262;2023-12-29T00:07:52;1.77;;;1.05;;
25549;SDS011;13444;50.562;7.262;2023-12-29T00:10:18;2.45;;;1.08;;
25549;SDS011;13444;50.562;7.262;2023-12-29T00:12:43;1.95;;;1.05;;
25549;SDS011;13444;50.562;7.262;2023-12-29T00:15:09;3.28;;;1.23;;
25549;SDS011;13444;50.562;7.262;2023-12-29T00:17:35;1.17;;;0.75;;
25549;SDS011;13444;50.562;7.262;2023-12-29T00:20:03;1.33;;;1.00;;
25549;SDS011;13444;50.562;7.262;2023-12-29T00:22:29;2.70;;;1.02;;
25549;SDS011;13444;50.562;7.262;2023-12-29T00:24:55;2.88;;;1.00;;
25549;SDS011;13444;50.562;7.262;2023-12-29T00:27:20;1.83;;;1.10;;
25549;SDS011;13444;50.562;7.262;2023-12-29T00:29:46;3.15;;;1.20;;
25549;SDS011;13444;50.562;7.262;2023-12-29T00:32:11;3.45;;;1.40;;
25549;SDS011;13444;50.562;7.262;2023-12-29T00:34:37;3.17;;;0.90;;
25549;SDS011;13444;50.562;7.262;2023-12-29T00:37:03;1.80;;;1.00;;
25549;SDS011;13444;50.562;7.262;2023-12-29T00:39:28;3.72;;;1.17;;
25549;SDS011;13444;50.562;7.262;2023-12-29T00:41:56;1.48;;;1.10;;
25549;SDS011;13444;50.562;7.262;2023-12-29T00:44:22;3.25;;;1.30;;
25549;SDS011;13444;50.562;7.262;2023-12-29T00:46:48;2.35;;;1.25;;
25549;SDS011;13444;50.562;7.262;2023-12-29T00:49:14;6.57;;;2.33;;
25549;SDS011;13444;50.562;7.262;2023-12-29T00:51:40;3.97;;;1.70;;
25549;SDS011;13444;50.562;7.262;2023-12-29T00:54:08;4.32;;;1.30;;
25549;SDS011;13444;50.562;7.262;2023-12-29T00:56:33;3.47;;;1.40;;
25549;SDS011;13444;50.562;7.262;2023-12-29T00:58:59;2.08;;;1.00;;
25549;SDS011;13444;50.562;7.262;2023-12-29T01:01:24;3.70;;;1.27;;
25549;SDS011;13444;50.562;7.262;2023-12-29T01:03:50;2.92;;;1.30;;
25549;SDS011;13444;50.562;7.262;2023-12-29T01:06:19;2.35;;;1.13;;
25549;SDS011;13444;50.562;7.262;2023-12-29T01:08:45;7.40;;;1.45;;
25549;SDS011;13444;50.562;7.262;2023-12-29T01:11:10;6.72;;;1.38;;
25549;SDS011;13444;50.562;7.262;2023-12-29T01:13:36;6.88;;;1.65;;
25549;SDS011;13444;50.562;7.262;2023-12-29T01:16:01;2.70;;;1.23;;
25549;SDS011;13444;50.562;7.262;2023-12-29T01:18:27;3.55;;;1.48;;
25549;SDS011;13444;50.562;7.262;2023-12-29T01:20:53;6.50;;;1.45;;
25549;SDS011;13444;50.562;7.262;2023-12-29T01:23:19;3.90;;;1.52;;
25549;SDS011;13444;50.562;7.262;2023-12-29T01:25:44;2.67;;;1.40;;
25549;SDS011;13444;50.562;7.262;2023-12-29T01:28:10;3.58;;;1.33;;
25549;SDS011;13444;50.562;7.262;2023-12-29T01:30:36;3.40;;;1.55;;
25549;SDS011;13444;50.562;7.262;2023-12-29T01:33:01;2.53;;;1.25;;
25549;SDS011;13444;50.562;7.262;2023-12-29T01:35:27;5.53;;;1.98;;
25549;SDS011;13444;50.562;7.262;2023-12-29T01:37:52;2.85;;;1.25;;
25549;SDS011;13444;50.562;7.262;2023-12-29T01:40:20;4.18;;;1.67;;
25549;SDS011;13444;50.562;7.262;2023-12-29T01:42:45;8.10;;;1.80;;
25549;SDS011;13444;50.562;7.262;2023-12-29T01:45:16;6.63;;;1.50;;
25549;SDS011;13444;50.562;7.262;2023-12-29T01:47:49;5.22;;;1.52;;
25549;SDS011;13444;50.562;7.262;2023-12-29T01:50:19;4.53;;;1.50;;
25549;SDS011;13444;50.562;7.262;2023-12-29T01:52:46;5.53;;;1.75;;
25549;SDS011;13444;50.562;7.262;2023-12-29T01:55:15;3.55;;;1.50;;
25549;SDS011;13444;50.562;7.262;2023-12-29T01:57:43;4.78;;;1.58;;
25549;SDS011;13444;50.562;7.262;2023-12-29T02:00:11;3.70;;;1.20;;
25549;SDS011;13444;50.562;7.262;2023-12-29T02:02:37;4.25;;;1.65;;
25549;SDS011;13444;50.562;7.262;2023-12-29T02:05:03;5.25;;;1.50;;
25549;SDS011;13444;50.562;7.262;2023-12-29T02:07:30;4.18;;;1.20;;
25549;SDS011;13444;50.562;7.262;2023-12-29T02:09:59;7.05;;;1.65;;
25549;SDS011;13444;50.562;7.262;2023-12-29T02:12:26;7.05;;;1.50;;
25549;SDS011;13444;50.562;7.262;2023-12-29T02:14:52;4.72;;;1.30;;
25549;SDS011;13444;50.562;7.262;2023-12-29T02:17:21;3.50;;;1.13;;
25549;SDS011;13444;50.562;7.262;2023-12-29T02:19:51;3.88;;;1.65;;
25549;SDS011;13444;50.562;7.262;2023-12-29T02:22:17;4.72;;;1.20;;
25549;SDS011;13444;50.562;7.262;2023-12-29T02:24:44;2.75;;;1.30;;
25549;SDS011;13444;50.562;7.262;2023-12-29T02:27:13;6.63;;;1.73;;
25549;SDS011;13444;50.562;7.262;2023-12-29T02:29:50;6.28;;;1.42;;
25549;SDS011;13444;50.562;7.262;2023-12-29T02:32:33;7.07;;;1.45;;
25549;SDS011;13444;50.562;7.262;2023-12-29T02:35:01;8.98;;;1.60;;
25549;SDS011;13444;50.562;7.262;2023-12-29T02:37:28;5.47;;;1.50;;
25549;SDS011;13444;50.562;7.262;2023-12-29T02:39:56;5.07;;;1.42;;
25549;SDS011;13444;50.562;7.262;2023-12-29T02:42:23;3.30;;;1.60;;
25549;SDS011;13444;50.562;7.262;2023-12-29T02:44:49;6.97;;;1.58;;
25549;SDS011;13444;50.562;7.262;2023-12-29T02:47:14;6.10;;;1.70;;
25549;SDS011;13444;50.562;7.262;2023-12-29T02:49:42;3.15;;;1.00;;
25549;SDS011;13444;50.562;7.262;2023-12-29T02:52:08;6.25;;;1.70;;
25549;SDS011;13444;50.562;7.262;2023-12-29T02:54:33;4.53;;;1.60;;
25549;SDS011;13444;50.562;7.262;2023-12-29T02:56:59;5.45;;;1.40;;
25549;SDS011;13444;50.562;7.262;2023-12-29T02:59:24;6.10;;;1.65;;
25549;SDS011;13444;50.562;7.262;2023-12-29T03:01:50;5.15;;;1.50;;
25549;SDS011;13444;50.562;7.262;2023-12-29T03:04:15;7.78;;;1.80;;
25549;SDS011;13444;50.562;7.262;2023-12-29T03:06:41;5.32;;;1.65;;
25549;SDS011;13444;50.562;7.262;2023-12-29T03:09:07;5.68;;;1.73;;
25549;SDS011;13444;50.562;7.262;2023-12-29T03:11:32;8.18;;;1.63;;
25549;SDS011;13444;50.562;7.262;2023-12-29T03:13:58;4.70;;;1.38;;
25549;SDS011;13444;50.562;7.262;2023-12-29T03:16:23;6.00;;;1.35;;
25549;SDS011;13444;50.562;7.262;2023-12-29T03:18:49;4.95;;;1.73;;
25549;SDS011;13444;50.562;7.262;2023-12-29T03:21:14;4.85;;;1.30;;
25549;SDS011;13444;50.562;7.262;2023-12-29T03:23:40;4.53;;;1.17;;
25549;SDS011;13444;50.562;7.262;2023-12-29T03:26:05;10.93;;;2.17;;
25549;SDS011;13444;50.562;7.262;2023-12-29T03:28:31;7.82;;;1.50;;
25549;SDS011;13444;50.562;7.262;2023-12-29T03:30:56;6.50;;;1.52;;
25549;SDS011;13444;50.562;7.262;2023-12-29T03:33:22;4.85;;;1.30;;
25549;SDS011;13444;50.562;7.262;2023-12-29T03:35:47;5.45;;;1.50;;
25549;SDS011;13444;50.562;7.262;2023-12-29T03:38:13;5.05;;;1.63;;
25549;SDS011;13444;50.562;7.262;2023-12-29T03:40:39;6.47;;;1.60;;
25549;SDS011;13444;50.562;7.262;2023-12-29T03:43:05;4.25;;;1.50;;
25549;SDS011;13444;50.562;7.262;2023-12-29T03:45:30;4.70;;;1.38;;
25549;SDS011;13444;50.562;7.262;2023-12-29T03:47:56;5.38;;;1.35;;
25549;SDS011;13444;50.562;7.262;2023-12-29T03:50:21;6.93;;;1.88;;
25549;SDS011;13444;50.562;7.262;2023-12-29T03:52:47;5.00;;;1.40;;
25549;SDS011;13444;50.562;7.262;2023-12-29T03:55:12;5.57;;;1.30;;
25549;SDS011;13444;50.562;7.262;2023-12-29T03:57:39;6.22;;;1.42;;
25549;SDS011;13444;50.562;7.262;2023-12-29T04:00:05;5.70;;;1.58;;
25549;SDS011;13444;50.562;7.262;2023-12-29T04:02:31;4.65;;;1.40;;
25549;SDS011;13444;50.562;7.262;2023-12-29T04:04:57;4.22;;;1.50;;
25549;SDS011;13444;50.562;7.262;2023-12-29T04:07:23;4.65;;;1.00;;
25549;SDS011;13444;50.562;7.262;2023-12-29T04:09:49;6.40;;;1.48;;
25549;SDS011;13444;50.562;7.262;2023-12-29T04:12:14;3.20;;;1.55;;
25549;SDS011;13444;50.562;7.262;2023-12-29T04:14:40;6.78;;;1.33;;
25549;SDS011;13444;50.562;7.262;2023-12-29T04:17:05;4.25;;;1.20;;
25549;SDS011;13444;50.562;7.262;2023-12-29T04:19:38;5.65;;;1.40;;
25549;SDS011;13444;50.562;7.262;2023-12-29T04:22:06;5.63;;;1.15;;
25549;SDS011;13444;50.562;7.262;2023-12-29T04:24:32;8.90;;;1.48;;
25549;SDS011;13444;50.562;7.262;2023-12-29T04:26:57;6.43;;;1.40;;
25549;SDS011;13444;50.562;7.262;2023-12-29T04:29:23;5.88;;;1.75;;
25549;SDS011;13444;50.562;7.262;2023-12-29T04:31:48;4.63;;;1.10;;
25549;SDS011;13444;50.562;7.262;2023-12-29T04:34:14;5.47;;;0.95;;
25549;SDS011;13444;50.562;7.262;2023-12-29T04:36:39;4.05;;;1.00;;
25549;SDS011;13444;50.562;7.262;2023-12-29T04:39:05;5.72;;;1.02;;
25549;SDS011;13444;50.562;7.262;2023-12-29T04:41:34;5.63;;;1.40;;
25549;SDS011;13444;50.562;7.262;2023-12-29T04:43:59;6.38;;;1.42;;
25549;SDS011;13444;50.562;7.262;2023-12-29T04:46:25;3.42;;;1.20;;
25549;SDS011;13444;50.562;7.262;2023-12-29T04:48:50;4.53;;;1.30;;
25549;SDS011;13444;50.562;7.262;2023-12-29T04:51:16;6.07;;;1.30;;
25549;SDS011;13444;50.562;7.262;2023-12-29T04:53:41;7.45;;;1.50;;
25549;SDS011;13444;50.562;7.262;2023-12-29T04:56:07;5.05;;;1.58;;
25549;SDS011;13444;50.562;7.262;2023-12-29T04:58:32;4.60;;;1.33;;
25549;SDS011;13444;50.562;7.262;2023-12-29T05:00:58;5.22;;;1.30;;
25549;SDS011;13444;50.562;7.262;2023-12-29T05:03:24;8.02;;;1.63;;
25549;SDS011;13444;50.562;7.262;2023-12-29T05:05:49;4.97;;;1.30;;
25549;SDS011;13444;50.562;7.262;2023-12-29T05:08:15;7.97;;;1.42;;
25549;SDS011;13444;50.562;7.262;2023-12-29T05:10:40;3.42;;;1.50;;
25549;SDS011;13444;50.562;7.262;2023-12-29T05:13:06;6.78;;;1.58;;
25549;SDS011;13444;50.562;7.262;2023-12-29T05:15:31;5.13;;;1.23;;
25549;SDS011;13444;50.562;7.262;2023-12-29T05:17:57;4.68;;;1.25;;
25549;SDS011;13444;50.562;7.262;2023-12-29T05:20:22;5.30;;;1.33;;
25549;SDS011;13444;50.562;7.262;2023-12-29T05:22:48;6.93;;;1.48;;
25549;SDS011;13444;50.562;7.262;2023-12-29T05:25:13;7.03;;;1.45;;
25549;SDS011;13444;50.562;7.262;2023-12-29T05:27:39;10.27;;;1.33;;
25549;SDS011;13444;50.562;7.262;2023-12-29T05:30:05;3.08;;;1.08;;
25549;SDS011;13444;50.562;7.262;2023-12-29T05:32:31;6.25;;;1.40;;
25549;SDS011;13444;50.562;7.262;2023-12-29T05:34:56;5.55;;;1.40;;
25549;SDS011;13444;50.562;7.262;2023-12-29T05:37:22;6.68;;;1.00;;
25549;SDS011;13444;50.562;7.262;2023-12-29T05:39:48;5.20;;;1.63;;
25549;SDS011;13444;50.562;7.262;2023-12-29T05:42:13;2.97;;;1.13;;
25549;SDS011;13444;50.562;7.262;2023-12-29T05:44:39;3.85;;;1.10;;
25549;SDS011;13444;50.562;7.262;2023-12-29T05:47:04;4.93;;;1.10;;
25549;SDS011;13444;50.562;7.262;2023-12-29T05:49:30;4.40;;;1.30;;
25549;SDS011;13444;50.562;7.262;2023-12-29T05:51:57;2.78;;;1.15;;
25549;SDS011;13444;50.562;7.262;2023-12-29T05:54:22;4.07;;;1.00;;
25549;SDS011;13444;50.562;7.262;2023-12-29T05:56:49;2.95;;;1.23;;
25549;SDS011;13444;50.562;7.262;2023-12-29T05:59:15;2.88;;;1.10;;
25549;SDS011;13444;50.562;7.262;2023-12-29T06:01:40;3.45;;;1.40;;
25549;SDS011;13444;50.562;7.262;2023-12-29T06:04:06;4.90;;;1.00;;
25549;SDS011;13444;50.562;7.262;2023-12-29T06:06:32;4.68;;;1.00;;
25549;SDS011;13444;50.562;7.262;2023-12-29T06:08:57;1.58;;;1.02;;
25549;SDS011;13444;50.562;7.262;2023-12-29T06:11:23;4.18;;;1.27;;
25549;SDS011;13444;50.562;7.262;2023-12-29T06:13:48;2.83;;;0.98;;
25549;SDS011;13444;50.562;7.262;2023-12-29T06:16:18;4.40;;;1.17;;
25549;SDS011;13444;50.562;7.262;2023-12-29T06:18:47;5.07;;;1.00;;
25549;SDS011;13444;50.562;7.262;2023-12-29T06:21:13;10.18;;;1.77;;
25549;SDS011;13444;50.562;7.262;2023-12-29T06:23:38;1.27;;;0.63;;
25549;SDS011;13444;50.562;7.262;2023-12-29T06:26:04;3.30;;;1.10;;
25549;SDS011;13444;50.562;7.262;2023-12-29T06:28:29;5.72;;;1.17;;
25549;SDS011;13444;50.562;7.262;2023-12-29T06:30:55;5.13;;;1.23;;
25549;SDS011;13444;50.562;7.262;2023-12-29T06:33:20;4.50;;;1.05;;
25549;SDS011;13444;50.562;7.262;2023-12-29T06:35:47;4.40;;;1.15;;
25549;SDS011;13444;50.562;7.262;2023-12-29T06:38:12;3.33;;;1.05;;
25549;SDS011;13444;50.562;7.262;2023-12-29T06:40:38;2.45;;;0.90;;
25549;SDS011;13444;50.562;7.262;2023-12-29T06:43:04;3.53;;;1.00;;
25549;SDS011;13444;50.562;7.262;2023-12-29T06:45:29;3.85;;;1.15;;
25549;SDS011;13444;50.562;7.262;2023-12-29T06:47:55;4.88;;;1.05;;
25549;SDS011;13444;50.562;7.262;2023-12-29T06:50:20;2.65;;;0.80;;
25549;SDS011;13444;50.562;7.262;2023-12-29T06:52:46;4.28;;;1.33;;
25549;SDS011;13444;50.562;7.262;2023-12-29T06:55:11;6.00;;;1.15;;
25549;SDS011;13444;50.562;7.262;2023-12-29T06:57:37;2.80;;;0.82;;
25549;SDS011;13444;50.562;7.262;2023-12-29T07:00:03;3.90;;;0.98;;
25549;SDS011;13444;50.562;7.262;2023-12-29T07:02:29;5.60;;;1.02;;
25549;SDS011;13444;50.562;7.262;2023-12-29T07:04:55;3.58;;;1.08;;
25549;SDS011;13444;50.562;7.262;2023-12-29T07:07:21;5.07;;;1.05;;
25549;SDS011;13444;50.562;7.262;2023-12-29T07:09:46;4.82;;;1.05;;
25549;SDS011;13444;50.562;7.262;2023-12-29T07:12:12;2.40;;;0.70;;
25549;SDS011;13444;50.562;7.262;2023-12-29T07:14:37;5.07;;;1.20;;
25549;SDS011;13444;50.562;7.262;2023-12-29T07:17:03;2.75;;;1.00;;
25549;SDS011;13444;50.562;7.262;2023-12-29T07:19:29;5.53;;;1.23;;
25549;SDS011;13444;50.562;7.262;2023-12-29T07:22:01;3.10;;;1.13;;
25549;SDS011;13444;50.562;7.262;2023-12-29T07:24:31;5.13;;;1.10;;
25549;SDS011;13444;50.562;7.262;2023-12-29T07:26:57;3.40;;;1.00;;
25549;SDS011;13444;50.562;7.262;2023-12-29T07:29:23;7.80;;;1.40;;
25549;SDS011;13444;50.562;7.262;2023-12-29T07:31:48;4.70;;;1.17;;
25549;SDS011;13444;50.562;7.262;2023-12-29T07:34:14;3.53;;;1.02;;
25549;SDS011;13444;50.562;7.262;2023-12-29T07:36:39;5.35;;;1.17;;
25549;SDS011;13444;50.562;7.262;2023-12-29T07:39:05;3.00;;;1.02;;
25549;SDS011;13444;50.562;7.262;2023-12-29T07:41:31;2.75;;;1.00;;
25549;SDS011;13444;50.562;7.262;2023-12-29T07:43:57;2.88;;;1.42;;
25549;SDS011;13444;50.562;7.262;2023-12-29T07:46:25;3.55;;;1.38;;
25549;SDS011;13444;50.562;7.262;2023-12-29T07:48:51;3.55;;;1.20;;
25549;SDS011;13444;50.562;7.262;2023-12-29T07:51:17;5.70;;;1.50;;
25549;SDS011;13444;50.562;7.262;2023-12-29T07:53:43;4.55;;;1.30;;
25549;SDS011;13444;50.562;7.262;2023-12-29T07:56:10;3.85;;;1.45;;
25549;SDS011;13444;50.562;7.262;2023-12-29T07:58:36;6.80;;;1.23;;
25549;SDS011;13444;50.562;7.262;2023-12-29T08:01:01;3.20;;;1.15;;
25549;SDS011;13444;50.562;7.262;2023-12-29T08:03:27;5.22;;;1.58;;
25549;SDS011;13444;50.562;7.262;2023-12-29T08:05:52;2.38;;;1.08;;
25549;SDS011;13444;50.562;7.262;2023-12-29T08:08:18;3.38;;;1.27;;
25549;SDS011;13444;50.562;7.262;2023-12-29T08:10:43;3.22;;;1.30;;
25549;SDS011;13444;50.562;7.262;2023-12-29T08:13:09;5.53;;;1.17;;
25549;SDS011;13444;50.562;7.262;2023-12-29T08:15:35;3.50;;;1.17;;
25549;SDS011;13444;50.562;7.262;2023-12-29T08:18:00;5.07;;;1.52;;
25549;SDS011;13444;50.562;7.262;2023-12-29T08:20:26;2.13;;;1.48;;
25549;SDS011;13444;50.562;7.262;2023-12-29T08:22:51;1.10;;;0.90;;
25549;SDS011;13444;50.562;7.262;2023-12-29T08:25:17;4.30;;;1.10;;
25549;SDS011;13444;50.562;7.262;2023-12-29T08:27:42;5.75;;;1.63;;
25549;SDS011;13444;50.562;7.262;2023-12-29T08:30:08;4.47;;;1.50;;
25549;SDS011;13444;50.562;7.262;2023-12-29T08:32:34;1.40;;;0.80;;
25549;SDS011;13444;50.562;7.262;2023-12-29T08:35:00;4.28;;;1.40;;
25549;SDS011;13444;50.562;7.262;2023-12-29T08:37:25;2.42;;;0.93;;
25549;SDS011;13444;50.562;7.262;2023-12-29T08:39:51;2.38;;;1.20;;
25549;SDS011;13444;50.562;7.262;2023-12-29T08:42:17;2.10;;;0.80;;
25549;SDS011;13444;50.562;7.262;2023-12-29T08:44:42;1.67;;;1.00;;
25549;SDS011;13444;50.562;7.262;2023-12-29T08:47:08;3.60;;;1.20;;
25549;SDS011;13444;50.562;7.262;2023-12-29T08:49:34;2.45;;;0.90;;
25549;SDS011;13444;50.562;7.262;2023-12-29T08:52:01;3.13;;;1.00;;
25549;SDS011;13444;50.562;7.262;2023-12-29T08:54:27;3.92;;;1.20;;
25549;SDS011;13444;50.562;7.262;2023-12-29T08:56:52;5.97;;;1.35;;
25549;SDS011;13444;50.562;7.262;2023-12-29T08:59:18;1.55;;;0.88;;
25549;SDS011;13444;50.562;7.262;2023-12-29T09:01:43;3.78;;;1.08;;
25549;SDS011;13444;50.562;7.262;2023-12-29T09:04:09;2.10;;;0.80;;
25549;SDS011;13444;50.562;7.262;2023-12-29T09:06:34;2.20;;;0.77;;
25549;SDS011;13444;50.562;7.262;2023-12-29T09:09:00;3.25;;;0.98;;
25549;SDS011;13444;50.562;7.262;2023-12-29T09:11:26;1.63;;;0.70;;
25549;SDS011;13444;50.562;7.262;2023-12-29T09:13:52;1.77;;;0.80;;
25549;SDS011;13444;50.562;7.262;2023-12-29T09:16:17;2.42;;;0.80;;
25549;SDS011;13444;50.562;7.262;2023-12-29T09:18:43;3.00;;;0.80;;
25549;SDS011;13444;50.562;7.262;2023-12-29T09:21:08;2.83;;;1.25;;
25549;SDS011;13444;50.562;7.262;2023-12-29T09:23:34;2.40;;;1.00;;
25549;SDS011;13444;50.562;7.262;2023-12-29T09:26:02;4.57;;;1.52;;
25549;SDS011;13444;50.562;7.262;2023-12-29T09:28:28;2.63;;;0.80;;
25549;SDS011;13444;50.562;7.262;2023-12-29T09:30:53;1.90;;;0.60;;
25549;SDS011;13444;50.562;7.262;2023-12-29T09:33:19;3.08;;;0.70;;
25549;SDS011;13444;50.562;7.262;2023-12-29T09:35:44;1.65;;;0.80;;
25549;SDS011;13444;50.562;7.262;2023-12-29T09:38:10;2.97;;;1.00;;
25549;SDS011;13444;50.562;7.262;2023-12-29T09:40:35;1.63;;;0.60;;
25549;SDS011;13444;50.562;7.262;2023-12-29T09:43:02;3.40;;;0.47;;
25549;SDS011;13444;50.562;7.262;2023-12-29T09:45:29;1.95;;;0.70;;
25549;SDS011;13444;50.562;7.262;2023-12-29T09:47:56;1.35;;;0.60;;
25549;SDS011;13444;50.562;7.262;2023-12-29T09:50:25;1.58;;;0.40;;
25549;SDS011;13444;50.562;7.262;2023-12-29T09:52:51;3.45;;;0.47;;
25549;SDS011;13444;50.562;7.262;2023-12-29T09:55:18;1.40;;;0.47;;
25549;SDS011;13444;50.562;7.262;2023-12-29T09:57:46;2.95;;;0.50;;
25549;SDS011;13444;50.562;7.262;2023-12-29T10:02:50;1.92;;;0.63;;
25549;SDS011;13444;50.562;7.262;2023-12-29T10:05:18;1.48;;;0.60;;
25549;SDS011;13444;50.562;7.262;2023-12-29T10:07:43;1.10;;;0.50;;
25549;SDS011;13444;50.562;7.262;2023-12-29T10:10:14;1.05;;;0.50;;
25549;SDS011;13444;50.562;7.262;2023-12-29T10:12:44;0.75;;;0.40;;
25549;SDS011;13444;50.562;7.262;2023-12-29T10:15:17;1.60;;;0.52;;
25549;SDS011;13444;50.562;7.262;2023-12-29T10:17:48;0.93;;;0.50;;
25549;SDS011;13444;50.562;7.262;2023-12-29T10:26:02;0.65;;;0.40;;
25549;SDS011;13444;50.562;7.262;2023-12-29T10:28:28;2.83;;;0.60;;
25549;SDS011;13444;50.562;7.262;2023-12-29T10:30:54;0.70;;;0.60;;
25549;SDS011;13444;50.562;7.262;2023-12-29T10:33:20;0.73;;;0.40;;
25549;SDS011;13444;50.562;7.262;2023-12-29T10:35:59;2.13;;;0.55;;
25549;SDS011;13444;50.562;7.262;2023-12-29T10:38:30;0.50;;;0.38;;
25549;SDS011;13444;50.562;7.262;2023-12-29T10:41:15;2.15;;;0.73;;
25549;SDS011;13444;50.562;7.262;2023-12-29T10:43:42;1.02;;;0.40;;
25549;SDS011;13444;50.562;7.262;2023-12-29T10:46:09;1.98;;;0.40;;
25549;SDS011;13444;50.562;7.262;2023-12-29T10:48:39;1.00;;;0.40;;
25549;SDS011;13444;50.562;7.262;2023-12-29T10:51:05;1.00;;;0.40;;
25549;SDS011;13444;50.562;7.262;2023-12-29T10:53:31;0.98;;;0.40;;
25549;SDS011;13444;50.562;7.262;2023-12-29T10:56:00;0.98;;;0.43;;
25549;SDS011;13444;50.562;7.262;2023-12-29T10:58:26;0.47;;;0.40;;
25549;SDS011;13444;50.562;7.262;2023-12-29T11:00:54;2.20;;;0.88;;
25549;SDS011;13444;50.562;7.262;2023-12-29T11:03:23;0.77;;;0.43;;
25549;SDS011;13444;50.562;7.262;2023-12-29T11:05:49;1.23;;;0.38;;
25549;SDS011;13444;50.562;7.262;2023-12-29T11:08:20;2.00;;;0.47;;
25549;SDS011;13444;50.562;7.262;2023-12-29T11:10:48;0.52;;;0.40;;
25549;SDS011;13444;50.562;7.262;2023-12-29T11:13:14;0.40;;;0.40;;
25549;SDS011;13444;50.562;7.262;2023-12-29T11:15:42;4.45;;;0.68;;
25549;SDS011;13444;50.562;7.262;2023-12-29T11:18:11;0.38;;;0.30;;
25549;SDS011;13444;50.562;7.262;2023-12-29T11:20:39;1.05;;;0.50;;
25549;SDS011;13444;50.562;7.262;2023-12-29T11:23:06;2.22;;;0.45;;
25549;SDS011;13444;50.562;7.262;2023-12-29T11:25:32;0.60;;;0.43;;
25549;SDS011;13444;50.562;7.262;2023-12-29T11:27:59;0.55;;;0.43;;
25549;SDS011;13444;50.562;7.262;2023-12-29T11:30:25;1.25;;;0.50;;
25549;SDS011;13444;50.562;7.262;2023-12-29T11:32:53;0.80;;;0.40;;
25549;SDS011;13444;50.562;7.262;2023-12-29T11:41:56;0.43;;;0.43;;
25549;SDS011;13444;50.562;7.262;2023-12-29T11:44:52;0.45;;;0.40;;
25549;SDS011;13444;50.562;7.262;2023-12-29T11:47:37;0.70;;;0.40;;
25549;SDS011;13444;50.562;7.262;2023-12-29T11:50:03;3.63;;;0.70;;
25549;SDS011;13444;50.562;7.262;2023-12-29T11:52:36;0.55;;;0.30;;
25549;SDS011;13444;50.562;7.262;2023-12-29T11:57:35;0.85;;;0.50;;
25549;SDS011;13444;50.562;7.262;2023-12-29T12:00:01;0.75;;;0.40;;
25549;SDS011;13444;50.562;7.262;2023-12-29T12:02:30;2.40;;;0.50;;
25549;SDS011;13444;50.562;7.262;2023-12-29T12:04:56;1.10;;;0.30;;
25549;SDS011;13444;50.562;7.262;2023-12-29T12:09:47;1.15;;;0.60;;
25549;SDS011;13444;50.562;7.262;2023-12-29T12:12:14;1.17;;;0.40;;
25549;SDS011;13444;50.562;7.262;2023-12-29T12:18:01;1.20;;;0.47;;
25549;SDS011;13444;50.562;7.262;2023-12-29T12:20:30;2.05;;;0.43;;
25549;SDS011;13444;50.562;7.262;2023-12-29T12:22:57;0.40;;;0.40;;
25549;SDS011;13444;50.562;7.262;2023-12-29T12:25:25;0.95;;;0.47;;
25549;SDS011;13444;50.562;7.262;2023-12-29T12:27:53;1.48;;;0.90;;
25549;SDS011;13444;50.562;7.262;2023-12-29T12:30:19;1.48;;;0.70;;
25549;SDS011;13444;50.562;7.262;2023-12-29T12:32:45;1.77;;;0.65;;
25549;SDS011;13444;50.562;7.262;2023-12-29T12:35:14;1.20;;;0.77;;
25549;SDS011;13444;50.562;7.262;2023-12-29T12:37:43;0.85;;;0.50;;
25549;SDS011;13444;50.562;7.262;2023-12-29T12:40:09;1.65;;;0.65;;
25549;SDS011;13444;50.562;7.262;2023-12-29T12:42:38;1.48;;;0.55;;
25549;SDS011;13444;50.562;7.262;2023-12-29T12:45:10;0.68;;;0.40;;
25549;SDS011;13444;50.562;7.262;2023-12-29T12:47:41;0.80;;;0.70;;
25549;SDS011;13444;50.562;7.262;2023-12-29T12:50:15;2.17;;;0.60;;
25549;SDS011;13444;50.562;7.262;2023-12-29T12:52:41;0.63;;;0.38;;
25549;SDS011;13444;50.562;7.262;2023-12-29T12:55:07;1.75;;;0.40;;
25549;SDS011;13444;50.562;7.262;2023-12-29T12:57:33;0.70;;;0.40;;
25549;SDS011;13444;50.562;7.262;2023-12-29T13:00:00;0.85;;;0.40;;
25549;SDS011;13444;50.562;7.262;2023-12-29T13:02:27;1.20;;;0.40;;
25549;SDS011;13444;50.562;7.262;2023-12-29T13:04:54;2.72;;;0.50;;
25549;SDS011;13444;50.562;7.262;2023-12-29T13:07:21;0.38;;;0.38;;
25549;SDS011;13444;50.562;7.262;2023-12-29T13:09:46;1.30;;;0.43;;
25549;SDS011;13444;50.562;7.262;2023-12-29T13:12:15;1.10;;;0.50;;
25549;SDS011;13444;50.562;7.262;2023-12-29T13:14:41;0.93;;;0.50;;
25549;SDS011;13444;50.562;7.262;2023-12-29T13:17:08;1.65;;;0.60;;
25549;SDS011;13444;50.562;7.262;2023-12-29T13:19:36;0.80;;;0.80;;
25549;SDS011;13444;50.562;7.262;2023-12-29T13:22:05;1.63;;;0.77;;
25549;SDS011;13444;50.562;7.262;2023-12-29T13:24:32;0.50;;;0.30;;
25549;SDS011;13444;50.562;7.262;2023-12-29T13:27:04;1.23;;;0.70;;
25549;SDS011;13444;50.562;7.262;2023-12-29T13:29:31;0.65;;;0.40;;
25549;SDS011;13444;50.562;7.262;2023-12-29T13:32:19;1.40;;;0.93;;
25549;SDS011;13444;50.562;7.262;2023-12-29T13:37:47;2.92;;;0.70;;
25549;SDS011;13444;50.562;7.262;2023-12-29T13:40:23;0.68;;;0.40;;
25549;SDS011;13444;50.562;7.262;2023-12-29T13:42:53;1.40;;;0.85;;
25549;SDS011;13444;50.562;7.262;2023-12-29T13:45:23;1.85;;;0.95;;
25549;SDS011;13444;50.562;7.262;2023-12-29T13:47:50;3.47;;;1.10;;
25549;SDS011;13444;50.562;7.262;2023-12-29T13:50:17;1.75;;;0.90;;
25549;SDS011;13444;50.562;7.262;2023-12-29T13:52:42;0.65;;;0.50;;
25549;SDS011;13444;50.562;7.262;2023-12-29T13:55:08;1.13;;;0.70;;
25549;SDS011;13444;50.562;7.262;2023-12-29T13:57:34;1.00;;;0.77;;
25549;SDS011;13444;50.562;7.262;2023-12-29T14:00:16;1.02;;;0.55;;
25549;SDS011;13444;50.562;7.262;2023-12-29T14:02:44;2.00;;;0.60;;
25549;SDS011;13444;50.562;7.262;2023-12-29T14:05:31;0.57;;;0.40;;
25549;SDS011;13444;50.562;7.262;2023-12-29T14:10:29;1.15;;;0.50;;
25549;SDS011;13444;50.562;7.262;2023-12-29T14:13:03;2.92;;;0.63;;
25549;SDS011;13444;50.562;7.262;2023-12-29T14:15:33;1.13;;;0.50;;
25549;SDS011;13444;50.562;7.262;2023-12-29T14:18:05;0.90;;;0.50;;
25549;SDS011;13444;50.562;7.262;2023-12-29T14:20:36;0.73;;;0.60;;
25549;SDS011;13444;50.562;7.262;2023-12-29T14:23:03;3.17;;;1.60;;
25549;SDS011;13444;50.562;7.262;2023-12-29T14:25:29;5.10;;;2.33;;
25549;SDS011;13444;50.562;7.262;2023-12-29T14:28:01;6.53;;;3.60;;
25549;SDS011;13444;50.562;7.262;2023-12-29T14:30:27;5.50;;;3.20;;
25549;SDS011;13444;50.562;7.262;2023-12-29T14:32:56;3.53;;;2.63;;
25549;SDS011;13444;50.562;7.262;2023-12-29T14:35:24;7.00;;;3.50;;
25549;SDS011;13444;50.562;7.262;2023-12-29T14:37:50;2.10;;;1.30;;
25549;SDS011;13444;50.562;7.262;2023-12-29T14:40:15;1.88;;;0.90;;
25549;SDS011;13444;50.562;7.262;2023-12-29T14:42:41;1.27;;;0.43;;
25549;SDS011;13444;50.562;7.262;2023-12-29T14:45:07;2.25;;;1.27;;
25549;SDS011;13444;50.562;7.262;2023-12-29T14:47:34;3.42;;;2.42;;
25549;SDS011;13444;50.562;7.262;2023-12-29T14:50:00;1.40;;;0.80;;
25549;SDS011;13444;50.562;7.262;2023-12-29T14:52:25;2.45;;;1.17;;
25549;SDS011;13444;50.562;7.262;2023-12-29T14:54:51;1.90;;;1.27;;
25549;SDS011;13444;50.562;7.262;2023-12-29T14:57:17;2.58;;;1.00;;
25549;SDS011;13444;50.562;7.262;2023-12-29T14:59:43;0.85;;;0.40;;
25549;SDS011;13444;50.562;7.262;2023-12-29T15:02:08;0.93;;;0.52;;
25549;SDS011;13444;50.562;7.262;2023-12-29T15:04:34;2.42;;;1.25;;
25549;SDS011;13444;50.562;7.262;2023-12-29T15:07:00;0.57;;;0.45;;
25549;SDS011;13444;50.562;7.262;2023-12-29T15:09:27;0.50;;;0.50;;
25549;SDS011;13444;50.562;7.262;2023-12-29T15:11:52;1.63;;;1.00;;
25549;SDS011;13444;50.562;7.262;2023-12-29T15:14:19;2.10;;;1.13;;